createdAt,value
2022-08-05T00:03:25.846Z,99.30
2022-08-05T00:13:39.648Z,100.00
2022-08-05T00:24:05.207Z,100.00
2022-08-05T00:34:56.862Z,100.00
2022-08-05T00:44:33.155Z,100.00
2022-08-05T00:54:38.068Z,100.00
2022-08-05T01:04:42.115Z,100.00
2022-08-05T01:14:53.161Z,100.00
2022-08-05T01:25:19.242Z,100.00
2022-08-05T01:35:50.709Z,100.00
2022-08-05T01:45:56.177Z,100.00
2022-08-05T01:56:04.527Z,100.00
2022-08-05T02:06:24.083Z,100.00
2022-08-05T02:16:40.644Z,100.00
2022-08-05T02:26:51.889Z,99.60
2022-08-05T02:37:04.408Z,99.66
2022-08-05T02:47:11.138Z,98.92
2022-08-05T02:58:09.654Z,98.65
2022-08-05T03:08:06.609Z,98.40
2022-08-05T03:18:07.834Z,98.37
2022-08-05T03:28:11.875Z,98.79
2022-08-05T03:38:32.798Z,98.66
2022-08-05T03:48:36.721Z,99.25
2022-08-05T03:58:45.958Z,99.21
2022-08-05T04:08:49.376Z,98.84
2022-08-05T04:18:57.706Z,99.33
2022-08-05T04:29:07.308Z,99.83
2022-08-05T04:39:12.098Z,100.00
2022-08-05T04:49:16.028Z,99.88
2022-08-05T04:59:36.664Z,99.68
2022-08-05T05:09:41.710Z,99.86
2022-08-05T05:19:47.729Z,98.41
2022-08-05T05:30:04.163Z,98.16
2022-08-05T05:40:11.388Z,98.42
2022-08-05T05:50:19.648Z,98.94
2022-08-05T06:00:27.554Z,98.63
2022-08-05T06:10:37.432Z,98.53
2022-08-05T06:20:54.090Z,97.32
2022-08-05T06:30:57.409Z,97.00
2022-08-05T06:41:02.020Z,95.55
2022-08-05T06:51:09.331Z,94.18
2022-08-05T07:01:14.121Z,93.26
2022-08-05T07:11:25.438Z,91.59
2022-08-05T07:22:00.795Z,89.59
2022-08-05T07:31:55.054Z,88.25
2022-08-05T07:42:09.595Z,84.22
2022-08-05T07:52:17.874Z,81.77
2022-08-05T08:02:30.732Z,79.59
2022-08-05T08:12:49.365Z,79.85
2022-08-05T08:22:55.677Z,74.97
2022-08-05T08:33:04.540Z,74.60
2022-08-05T08:45:17.800Z,72.16
2022-08-05T08:53:40.285Z,72.09
2022-08-05T09:03:55.172Z,71.44
2022-08-05T09:14:54.142Z,68.79
2022-08-05T09:24:25.422Z,68.84
2022-08-05T09:34:47.710Z,70.37
2022-08-05T09:44:56.771Z,69.30
2022-08-05T09:55:55.518Z,63.50
2022-08-05T10:05:28.055Z,56.23
2022-08-05T10:15:34.527Z,54.01
2022-08-05T10:25:41.058Z,51.42
2022-08-05T10:35:48.445Z,47.41
2022-08-05T10:46:07.116Z,46.78
2022-08-05T10:56:25.585Z,45.40
2022-08-05T11:06:31.345Z,43.20
2022-08-05T11:16:47.854Z,39.10
2022-08-05T11:27:51.098Z,40.52
2022-08-05T11:38:29.891Z,42.13
2022-08-05T11:48:28.665Z,43.64
2022-08-05T11:58:36.544Z,45.03
2022-08-05T12:08:44.949Z,42.71
2022-08-05T12:18:55.784Z,41.54
2022-08-05T12:28:58.762Z,38.45
2022-08-05T12:39:07.133Z,37.40
2022-08-05T12:49:13.707Z,39.57
2022-08-05T12:59:20.841Z,38.75
2022-08-05T13:09:30.880Z,36.43
2022-08-05T13:19:52.316Z,35.34
2022-08-05T13:49:05.596Z,33.89
2022-08-05T13:59:19.608Z,36.10
2022-08-05T14:09:24.931Z,37.27
2022-08-05T14:19:32.957Z,37.87
2022-08-05T14:29:57.421Z,36.05
2022-08-05T14:40:02.223Z,34.05
2022-08-05T14:50:17.412Z,36.20
2022-08-05T15:00:22.021Z,36.92
2022-08-05T15:10:33.125Z,35.31
2022-08-05T15:20:36.357Z,35.31
2022-08-05T15:30:40.776Z,37.42
2022-08-05T15:41:04.109Z,35.93
2022-08-05T15:51:10.821Z,37.06
2022-08-05T16:01:16.274Z,40.27
2022-08-05T16:11:42.635Z,41.90
2022-08-05T16:22:00.298Z,43.82
2022-08-05T16:32:09.916Z,47.59
2022-08-05T16:42:17.723Z,49.44
2022-08-05T16:52:33.612Z,48.39
2022-08-05T17:02:36.880Z,49.42
2022-08-05T17:12:51.120Z,50.15
2022-08-05T17:22:55.849Z,51.18
2022-08-05T17:33:00.302Z,51.28
2022-08-05T17:43:10.201Z,48.42
2022-08-05T17:53:14.685Z,46.56
2022-08-05T18:13:44.220Z,46.76
2022-08-05T18:23:47.411Z,49.18
2022-08-05T18:33:51.886Z,51.44
2022-08-05T18:43:55.208Z,53.08
2022-08-05T18:54:00.699Z,54.27
2022-08-05T19:04:05.548Z,55.68
2022-08-05T19:14:59.172Z,57.00
2022-08-05T19:24:34.072Z,58.15
2022-08-05T19:34:39.324Z,59.03
2022-08-05T19:44:45.075Z,59.90
2022-08-05T19:54:51.110Z,60.70
2022-08-05T20:04:55.432Z,62.22
2022-08-05T20:15:03.147Z,62.84
2022-08-05T20:25:06.919Z,63.86
2022-08-05T20:35:12.497Z,64.97
2022-08-05T20:45:17.331Z,65.48
2022-08-05T20:55:54.638Z,66.39
2022-08-05T21:05:55.509Z,68.02
2022-08-05T21:16:00.205Z,68.95
2022-08-05T21:26:08.185Z,69.39
2022-08-05T21:36:19.124Z,70.10
2022-08-05T21:46:30.731Z,71.10
2022-08-05T21:56:35.383Z,71.01
2022-08-05T22:06:50.272Z,72.02
2022-08-05T22:16:57.062Z,72.92
2022-08-05T22:27:20.631Z,74.42
2022-08-05T22:37:24.976Z,74.36
2022-08-05T22:47:49.948Z,75.50
2022-08-05T22:57:59.855Z,76.67
2022-08-05T23:08:02.921Z,77.53
2022-08-05T23:18:11.797Z,78.17
2022-08-05T23:28:19.028Z,78.52
2022-08-05T23:38:23.508Z,79.56
2022-08-05T23:48:27.206Z,80.44
2022-08-05T23:58:33.261Z,80.67
